createdAt,value
2023-03-04T00:02:22.301Z,7.05
2023-03-04T00:04:50.158Z,5.70
2023-03-04T00:07:18.973Z,5.28
2023-03-04T00:09:46.583Z,6.78
2023-03-04T00:12:13.827Z,6.18
2023-03-04T00:14:41.287Z,5.70
2023-03-04T00:17:08.156Z,5.57
2023-03-04T00:19:36.004Z,5.60
2023-03-04T00:22:04.604Z,6.57
2023-03-04T00:24:32.203Z,6.85
2023-03-04T00:26:59.190Z,6.45
2023-03-04T00:29:26.104Z,7.95
2023-03-04T00:31:52.885Z,8.65
2023-03-04T00:34:20.033Z,8.02
2023-03-04T00:36:47.010Z,4.68
2023-03-04T00:39:13.948Z,7.35
2023-03-04T00:41:41.026Z,6.13
2023-03-04T00:44:07.986Z,7.70
2023-03-04T00:46:34.672Z,7.45
2023-03-04T00:49:01.833Z,7.30
2023-03-04T00:51:28.785Z,8.73
2023-03-04T00:53:55.472Z,8.30
2023-03-04T00:56:22.673Z,8.63
2023-03-04T00:58:49.658Z,8.63
2023-03-04T01:01:16.602Z,7.13
2023-03-04T01:03:43.670Z,8.48
2023-03-04T01:06:11.488Z,8.57
2023-03-04T01:08:39.022Z,5.95
2023-03-04T01:11:06.623Z,7.50
2023-03-04T01:13:33.869Z,5.47
2023-03-04T01:16:01.197Z,7.05
2023-03-04T01:18:27.995Z,7.20
2023-03-04T01:20:54.888Z,6.43
2023-03-04T01:23:21.645Z,9.65
2023-03-04T01:25:48.881Z,10.18
2023-03-04T01:28:15.674Z,8.88
2023-03-04T01:30:42.614Z,8.13
2023-03-04T01:33:09.375Z,9.27
2023-03-04T01:35:36.172Z,6.85
2023-03-04T01:38:04.283Z,10.27
2023-03-04T01:40:32.743Z,10.18
2023-03-04T01:42:59.770Z,8.98
2023-03-04T01:45:26.875Z,10.70
2023-03-04T01:47:54.188Z,11.07
2023-03-04T01:50:26.982Z,8.02
2023-03-04T01:52:53.803Z,9.50
2023-03-04T01:55:22.177Z,10.10
2023-03-04T01:57:51.313Z,6.88
2023-03-04T02:00:28.590Z,6.97
2023-03-04T02:03:12.953Z,6.18
2023-03-04T02:05:43.447Z,7.57
2023-03-04T02:08:14.545Z,6.60
2023-03-04T02:10:43.707Z,7.90
2023-03-04T02:13:11.776Z,6.78
2023-03-04T02:15:38.957Z,7.15
2023-03-04T02:18:25.144Z,10.13
2023-03-04T02:21:11.757Z,10.90
2023-03-04T02:23:38.670Z,8.00
2023-03-04T02:26:11.267Z,13.55
2023-03-04T02:28:38.139Z,8.38
2023-03-04T02:31:05.512Z,15.50
2023-03-04T02:33:33.522Z,6.70
2023-03-04T02:36:00.363Z,9.55
2023-03-04T02:38:27.357Z,8.98
2023-03-04T02:40:56.303Z,9.25
2023-03-04T02:43:24.240Z,13.52
2023-03-04T02:45:52.003Z,8.13
2023-03-04T02:48:22.535Z,11.38
2023-03-04T02:50:52.551Z,6.93
2023-03-04T02:53:20.924Z,10.43
2023-03-04T02:55:48.387Z,6.57
2023-03-04T02:58:15.733Z,8.98
2023-03-04T03:00:45.509Z,7.47
2023-03-04T03:03:12.412Z,7.85
2023-03-04T03:05:40.050Z,5.72
2023-03-04T03:08:07.278Z,6.53
2023-03-04T03:10:34.179Z,7.90
2023-03-04T03:13:01.789Z,7.05
2023-03-04T03:15:32.546Z,10.25
2023-03-04T03:18:00.751Z,7.63
2023-03-04T03:20:27.787Z,6.20
2023-03-04T03:22:54.460Z,7.55
2023-03-04T03:25:21.519Z,6.75
2023-03-04T03:27:48.856Z,8.43
2023-03-04T03:30:17.720Z,9.57
2023-03-04T03:32:44.842Z,8.43
2023-03-04T03:35:11.821Z,5.88
2023-03-04T03:37:38.607Z,7.05
2023-03-04T03:40:06.026Z,7.18
2023-03-04T03:42:33.292Z,8.30
2023-03-04T03:45:00.106Z,10.07
2023-03-04T03:47:27.709Z,7.60
2023-03-04T03:49:54.663Z,8.05
2023-03-04T03:52:21.417Z,8.63
2023-03-04T03:54:51.407Z,7.22
2023-03-04T03:57:18.477Z,6.18
2023-03-04T03:59:45.179Z,9.07
2023-03-04T04:02:12.012Z,9.30
2023-03-04T04:04:38.990Z,9.10
2023-03-04T04:07:05.676Z,6.90
2023-03-04T04:09:32.467Z,7.78
2023-03-04T04:11:59.445Z,7.63
2023-03-04T04:14:26.127Z,7.90
2023-03-04T04:16:53.024Z,8.15
2023-03-04T04:19:21.162Z,11.20
2023-03-04T04:21:49.007Z,9.30
2023-03-04T04:24:16.176Z,7.30
2023-03-04T04:26:43.671Z,8.18
2023-03-04T04:29:14.600Z,9.30
2023-03-04T04:31:41.812Z,7.75
2023-03-04T04:34:09.235Z,9.05
2023-03-04T04:36:36.020Z,12.32
2023-03-04T04:39:03.538Z,11.00
2023-03-04T04:41:37.079Z,12.52
2023-03-04T04:44:04.035Z,10.63
2023-03-04T04:46:31.084Z,8.35
2023-03-04T04:48:58.514Z,8.77
2023-03-04T04:51:25.184Z,9.27
2023-03-04T04:53:52.320Z,8.15
2023-03-04T04:56:22.421Z,8.05
2023-03-04T04:58:49.483Z,8.13
2023-03-04T05:01:16.917Z,5.78
2023-03-04T05:03:44.347Z,10.20
2023-03-04T05:06:12.433Z,7.20
2023-03-04T05:08:39.816Z,8.02
2023-03-04T05:11:12.888Z,7.80
2023-03-04T05:13:48.082Z,7.65
2023-03-04T05:16:17.629Z,8.05
2023-03-04T05:18:44.536Z,8.77
2023-03-04T05:21:11.512Z,6.47
2023-03-04T05:23:42.907Z,8.90
2023-03-04T05:26:12.925Z,6.47
2023-03-04T05:28:39.917Z,12.60
2023-03-04T05:31:07.454Z,9.60
2023-03-04T05:33:35.085Z,8.48
2023-03-04T05:36:02.872Z,10.38
2023-03-04T05:38:29.834Z,9.38
2023-03-04T05:41:01.143Z,10.25
2023-03-04T05:43:28.866Z,7.43
2023-03-04T05:45:56.592Z,8.90
2023-03-04T05:48:23.837Z,8.20
2023-03-04T05:50:57.867Z,10.32
2023-03-04T05:53:25.212Z,7.90
2023-03-04T05:55:52.535Z,10.85
2023-03-04T05:58:22.735Z,8.40
2023-03-04T06:00:50.289Z,9.98
2023-03-04T06:03:22.506Z,12.40
2023-03-04T06:05:49.541Z,13.23
2023-03-04T06:08:16.449Z,11.55
2023-03-04T06:10:43.300Z,9.98
2023-03-04T06:13:10.770Z,7.95
2023-03-04T06:15:38.438Z,15.05
2023-03-04T06:18:08.329Z,12.55
2023-03-04T06:20:35.468Z,15.57
2023-03-04T06:23:02.271Z,12.48
2023-03-04T06:25:29.544Z,8.30
2023-03-04T06:28:02.366Z,18.13
2023-03-04T06:30:29.576Z,13.95
2023-03-04T06:35:57.598Z,13.23
2023-03-04T06:38:35.007Z,12.65
2023-03-04T06:43:55.651Z,20.02
2023-03-04T06:46:23.049Z,12.35
2023-03-04T06:49:14.112Z,10.50
2023-03-04T06:51:41.420Z,13.90
2023-03-04T06:54:08.066Z,19.15
2023-03-04T06:56:35.029Z,15.50
2023-03-04T06:59:02.194Z,13.77
2023-03-04T07:01:29.992Z,19.45
2023-03-04T07:03:58.100Z,21.35
2023-03-04T07:06:28.153Z,25.38
2023-03-04T07:08:55.141Z,24.48
2023-03-04T07:11:22.735Z,22.45
2023-03-04T07:13:50.554Z,24.52
2023-03-04T07:16:20.107Z,22.95
2023-03-04T07:18:48.121Z,24.02
2023-03-04T07:21:15.864Z,17.90
2023-03-04T07:23:43.994Z,20.88
2023-03-04T07:26:11.366Z,16.33
2023-03-04T07:28:38.558Z,19.70
2023-03-04T07:31:30.240Z,23.13
2023-03-04T07:33:59.621Z,20.77
2023-03-04T07:36:27.209Z,21.30
2023-03-04T07:38:57.322Z,25.75
2023-03-04T07:41:26.920Z,22.00
2023-03-04T07:43:53.841Z,20.30
2023-03-04T07:46:20.837Z,21.05
2023-03-04T07:48:47.973Z,21.90
2023-03-04T07:51:19.263Z,25.75
2023-03-04T07:53:48.868Z,23.52
2023-03-04T07:59:22.934Z,25.52
2023-03-04T08:01:54.120Z,23.45
2023-03-04T08:04:21.866Z,20.73
2023-03-04T08:07:02.713Z,18.65
2023-03-04T08:09:30.321Z,23.33
2023-03-04T08:11:57.550Z,24.50
2023-03-04T08:14:26.647Z,23.48
2023-03-04T08:16:54.788Z,18.30
2023-03-04T08:19:21.597Z,18.88
2023-03-04T08:21:49.170Z,23.63
2023-03-04T08:24:24.683Z,21.85
2023-03-04T08:26:54.411Z,19.05
2023-03-04T08:29:23.744Z,22.77
2023-03-04T08:31:52.246Z,20.73
2023-03-04T08:34:21.696Z,22.00
2023-03-04T08:36:52.772Z,23.63
2023-03-04T08:39:22.888Z,20.80
2023-03-04T08:41:50.082Z,19.55
2023-03-04T08:44:17.354Z,22.58
2023-03-04T08:46:44.306Z,20.42
2023-03-04T08:49:12.957Z,20.75
2023-03-04T08:51:41.914Z,21.27
2023-03-04T08:54:08.763Z,21.17
2023-03-04T08:56:35.593Z,23.48
2023-03-04T08:59:02.527Z,18.40
2023-03-04T09:01:29.593Z,23.48
2023-03-04T09:03:58.770Z,22.40
2023-03-04T09:06:25.754Z,25.63
2023-03-04T09:08:52.801Z,24.77
2023-03-04T09:11:19.770Z,22.48
2023-03-04T09:13:46.745Z,22.30
2023-03-04T09:16:15.233Z,26.00
2023-03-04T09:18:43.006Z,26.02
2023-03-04T09:21:10.469Z,24.05
2023-03-04T09:23:38.135Z,21.10
2023-03-04T09:26:21.631Z,27.05
2023-03-04T09:28:53.912Z,21.92
2023-03-04T09:31:21.528Z,21.30
2023-03-04T09:33:49.277Z,19.52
2023-03-04T09:36:16.315Z,21.92
2023-03-04T09:38:43.535Z,21.83
2023-03-04T09:41:20.399Z,25.55
2023-03-04T09:43:48.807Z,19.10
2023-03-04T09:46:27.399Z,18.98
2023-03-04T09:48:56.186Z,17.55
2023-03-04T09:51:44.440Z,17.95
2023-03-04T09:54:20.120Z,16.25
2023-03-04T09:56:51.528Z,13.27
2023-03-04T09:59:30.998Z,12.70
2023-03-04T10:02:01.365Z,14.00
2023-03-04T10:04:48.779Z,20.17
2023-03-04T10:07:34.516Z,18.17
2023-03-04T10:10:14.975Z,12.18
2023-03-04T10:12:49.147Z,13.00
2023-03-04T10:15:23.590Z,13.93
2023-03-04T10:17:57.743Z,19.45
2023-03-04T10:20:32.903Z,16.92
2023-03-04T10:23:10.604Z,18.67
2023-03-04T10:25:49.243Z,19.17
2023-03-04T10:28:23.790Z,17.05
2023-03-04T10:31:20.532Z,16.70
2023-03-04T10:34:00.185Z,12.57
2023-03-04T10:36:36.330Z,15.68
2023-03-04T10:39:32.605Z,10.18
2023-03-04T10:42:06.958Z,16.40
2023-03-04T10:44:35.596Z,16.75
2023-03-04T10:47:08.246Z,17.98
2023-03-04T10:49:54.026Z,13.88
2023-03-04T10:52:38.845Z,21.38
2023-03-04T10:55:20.377Z,20.08
2023-03-04T10:57:56.235Z,14.40
2023-03-04T11:00:38.059Z,14.68
2023-03-04T11:03:16.694Z,15.85
2023-03-04T11:05:43.611Z,14.88
2023-03-04T11:08:36.379Z,15.32
2023-03-04T11:11:03.626Z,13.05
2023-03-04T11:13:31.643Z,13.55
2023-03-04T11:16:02.371Z,15.25
2023-03-04T11:18:50.300Z,15.68
2023-03-04T11:21:33.160Z,14.38
2023-03-04T11:24:28.049Z,13.45
2023-03-04T11:27:12.133Z,19.40
2023-03-04T11:29:55.358Z,14.25
2023-03-04T11:32:26.565Z,13.32
2023-03-04T11:35:15.768Z,14.50
2023-03-04T11:38:07.001Z,13.13
2023-03-04T11:43:40.044Z,12.70
2023-03-04T11:46:19.327Z,14.23
2023-03-04T11:49:14.286Z,15.00
2023-03-04T11:51:59.849Z,8.35
2023-03-04T11:54:58.231Z,10.45
2023-03-04T11:57:48.336Z,10.50
2023-03-04T12:01:01.139Z,10.35
2023-03-04T12:03:53.432Z,11.20
2023-03-04T12:06:55.921Z,11.30
2023-03-04T12:09:36.655Z,10.93
2023-03-04T12:12:42.868Z,9.80
2023-03-04T12:15:21.649Z,12.88
2023-03-04T12:18:10.222Z,11.18
2023-03-04T12:21:03.114Z,12.35
2023-03-04T12:23:44.465Z,10.18
2023-03-04T12:26:37.316Z,12.38
2023-03-04T12:29:10.488Z,13.25
2023-03-04T12:31:46.507Z,12.38
2023-03-04T12:34:43.075Z,15.27
2023-03-04T12:37:44.251Z,17.73
2023-03-04T12:40:43.492Z,31.48
2023-03-04T12:43:41.752Z,23.38
2023-03-04T12:46:32.390Z,14.70
2023-03-04T12:49:19.476Z,12.32
2023-03-04T12:51:52.158Z,15.73
2023-03-04T12:54:37.479Z,16.30
2023-03-04T12:57:15.612Z,14.52
2023-03-04T13:00:14.939Z,13.85
2023-03-04T13:03:08.376Z,15.88
2023-03-04T13:06:04.781Z,10.93
2023-03-04T13:08:35.918Z,10.02
2023-03-04T13:11:23.371Z,14.85
2023-03-04T13:14:15.251Z,10.13
2023-03-04T13:16:45.838Z,11.77
2023-03-04T13:19:43.734Z,16.77
2023-03-04T13:22:48.761Z,13.30
2023-03-04T13:25:46.762Z,11.68
2023-03-04T13:28:29.903Z,13.02
2023-03-04T13:30:57.072Z,16.92
2023-03-04T13:33:24.102Z,15.52
2023-03-04T13:35:58.695Z,17.60
2023-03-04T13:38:28.395Z,12.88
2023-03-04T13:41:17.042Z,13.20
2023-03-04T13:43:47.801Z,16.60
2023-03-04T13:46:21.211Z,16.20
2023-03-04T13:48:52.800Z,13.38
2023-03-04T13:51:46.792Z,12.30
2023-03-04T13:54:19.859Z,15.65
2023-03-04T13:57:21.735Z,16.58
2023-03-04T13:59:53.272Z,13.73
2023-03-04T14:02:23.194Z,14.95
2023-03-04T14:05:01.051Z,12.55
2023-03-04T14:07:29.144Z,13.93
2023-03-04T14:09:58.806Z,13.38
2023-03-04T14:12:27.862Z,9.77
2023-03-04T14:15:27.940Z,13.68
2023-03-04T14:18:00.069Z,12.13
2023-03-04T14:20:43.394Z,12.75
2023-03-04T14:23:42.380Z,15.23
2023-03-04T14:26:15.274Z,15.10
2023-03-04T14:28:52.022Z,11.40
2023-03-04T14:31:37.801Z,15.05
2023-03-04T14:34:04.639Z,16.60
2023-03-04T14:36:35.890Z,17.40
2023-03-04T14:39:07.330Z,14.88
2023-03-04T14:41:36.750Z,18.08
2023-03-04T14:44:36.281Z,23.52
2023-03-04T14:47:23.601Z,15.35
2023-03-04T14:49:51.263Z,16.48
2023-03-04T14:52:34.513Z,13.80
2023-03-04T14:55:14.741Z,12.27
2023-03-04T14:57:43.448Z,13.63
2023-03-04T15:00:26.848Z,16.67
2023-03-04T15:02:56.951Z,17.52
2023-03-04T15:05:35.699Z,15.65
2023-03-04T15:08:18.506Z,15.85
2023-03-04T15:10:56.477Z,14.98
2023-03-04T15:13:39.699Z,17.73
2023-03-04T15:16:08.218Z,17.40
2023-03-04T15:18:35.171Z,16.38
2023-03-04T15:21:06.050Z,16.77
2023-03-04T15:23:34.009Z,18.83
2023-03-04T15:26:03.614Z,17.60
2023-03-04T15:28:34.642Z,19.33
2023-03-04T15:31:01.628Z,24.00
2023-03-04T15:33:28.457Z,18.92
2023-03-04T15:36:17.329Z,15.93
2023-03-04T15:38:47.917Z,30.00
2023-03-04T15:41:20.856Z,18.90
2023-03-04T15:43:47.667Z,16.98
2023-03-04T15:46:16.960Z,16.90
2023-03-04T15:49:03.459Z,20.23
2023-03-04T15:51:30.348Z,16.20
2023-03-04T15:53:59.100Z,13.73
2023-03-04T15:59:23.637Z,16.08
2023-03-04T16:01:50.818Z,18.25
2023-03-04T16:04:18.372Z,15.65
2023-03-04T16:06:59.785Z,18.48
2023-03-04T16:09:26.626Z,16.73
2023-03-04T16:11:56.518Z,15.10
2023-03-04T16:14:23.678Z,16.52
2023-03-04T16:16:50.717Z,19.33
2023-03-04T16:19:17.721Z,16.80
2023-03-04T16:21:44.865Z,18.75
2023-03-04T16:24:19.587Z,18.05
2023-03-04T16:27:04.207Z,16.38
2023-03-04T16:29:42.562Z,16.55
2023-03-04T16:32:10.635Z,22.33
2023-03-04T16:34:37.979Z,17.77
2023-03-04T16:37:12.822Z,18.65
2023-03-04T16:39:44.257Z,24.58
2023-03-04T16:42:17.068Z,29.40
2023-03-04T16:44:46.246Z,26.75
2023-03-04T16:47:13.060Z,25.85
2023-03-04T16:49:40.341Z,30.13
2023-03-04T16:52:34.009Z,36.20
2023-03-04T16:55:01.438Z,34.60
2023-03-04T16:57:28.806Z,50.85
2023-03-04T16:59:55.631Z,42.05
2023-03-04T17:02:31.604Z,45.92
2023-03-04T17:04:59.454Z,49.65
2023-03-04T17:07:26.240Z,42.38
2023-03-04T17:09:53.602Z,43.10
2023-03-04T17:12:20.489Z,40.72
2023-03-04T17:20:21.628Z,30.38
2023-03-04T17:22:57.188Z,28.05
2023-03-04T17:25:28.440Z,35.25
2023-03-04T17:28:08.220Z,28.50
2023-03-04T17:30:35.107Z,28.35
2023-03-04T17:33:01.791Z,29.88
2023-03-04T17:35:28.740Z,27.83
2023-03-04T17:37:55.621Z,29.85
2023-03-04T17:40:22.505Z,30.17
2023-03-04T17:42:49.376Z,31.92
2023-03-04T17:45:16.213Z,32.92
2023-03-04T17:47:44.497Z,31.98
2023-03-04T17:50:12.118Z,34.22
2023-03-04T17:52:39.074Z,31.92
2023-03-04T17:55:06.556Z,30.50
2023-03-04T17:57:36.655Z,27.00
2023-03-04T18:02:46.877Z,30.40
2023-03-04T18:05:13.790Z,31.35
2023-03-04T18:07:40.506Z,38.33
2023-03-04T18:10:13.996Z,38.63
2023-03-04T18:12:41.088Z,37.53
2023-03-04T18:15:08.510Z,30.30
2023-03-04T18:17:35.613Z,33.03
2023-03-04T18:20:02.663Z,32.30
2023-03-04T18:22:31.244Z,36.88
2023-03-04T18:24:59.056Z,29.40
2023-03-04T18:27:26.108Z,33.17
2023-03-04T18:29:53.254Z,30.25
2023-03-04T18:32:20.193Z,30.67
2023-03-04T18:34:47.091Z,32.15
2023-03-04T18:37:17.387Z,34.72
2023-03-04T18:39:44.362Z,32.35
2023-03-04T18:42:11.228Z,31.88
2023-03-04T18:44:38.069Z,27.58
2023-03-04T18:47:05.591Z,30.50
2023-03-04T18:49:33.147Z,31.98
2023-03-04T18:52:00.001Z,27.20
2023-03-04T18:54:26.990Z,26.65
2023-03-04T18:56:59.633Z,26.75
2023-03-04T18:59:31.586Z,30.73
2023-03-04T19:02:02.234Z,24.05
2023-03-04T19:04:32.275Z,25.10
2023-03-04T19:07:03.813Z,25.60
2023-03-04T19:09:32.246Z,27.83
2023-03-04T19:11:59.092Z,26.83
2023-03-04T19:14:26.288Z,28.38
2023-03-04T19:16:56.748Z,31.48
2023-03-04T19:19:23.579Z,27.23
2023-03-04T19:21:50.532Z,24.77
2023-03-04T19:24:17.688Z,29.60
2023-03-04T19:26:44.416Z,24.90
2023-03-04T19:29:11.436Z,22.77
2023-03-04T19:31:41.150Z,30.40
2023-03-04T19:34:08.356Z,25.85
2023-03-04T19:36:35.375Z,27.05
2023-03-04T19:39:02.394Z,17.55
2023-03-04T19:41:29.195Z,17.05
2023-03-04T19:43:56.136Z,15.27
2023-03-04T19:46:23.079Z,16.80
2023-03-04T19:48:50.409Z,15.02
2023-03-04T19:51:19.638Z,10.93
2023-03-04T19:53:47.424Z,9.65
2023-03-04T19:56:14.675Z,9.38
2023-03-04T19:58:41.764Z,8.50
2023-03-04T20:01:20.628Z,9.90
2023-03-04T20:03:47.819Z,13.38
2023-03-04T20:06:14.947Z,11.02
2023-03-04T20:08:41.778Z,13.88
2023-03-04T20:11:12.762Z,12.80
2023-03-04T20:13:39.727Z,11.98
2023-03-04T20:16:12.786Z,13.25
2023-03-04T20:18:40.604Z,14.80
2023-03-04T20:21:07.445Z,17.67
2023-03-04T20:23:35.164Z,14.80
2023-03-04T20:26:02.615Z,12.68
2023-03-04T20:28:30.300Z,10.32
2023-03-04T20:31:21.856Z,10.43
2023-03-04T20:34:01.122Z,12.23
2023-03-04T20:36:30.624Z,13.25
2023-03-04T20:39:02.554Z,13.52
2023-03-04T20:41:42.687Z,10.30
2023-03-04T20:44:09.618Z,13.23
2023-03-04T20:46:46.064Z,14.85
2023-03-04T20:49:24.669Z,13.45
2023-03-04T20:52:01.004Z,14.43
2023-03-04T20:54:27.910Z,16.25
2023-03-04T20:56:54.750Z,22.63
2023-03-04T20:59:21.977Z,19.23
2023-03-04T21:01:48.971Z,15.40
2023-03-04T21:04:16.960Z,10.45
2023-03-04T21:06:45.373Z,13.52
2023-03-04T21:09:14.820Z,12.07
2023-03-04T21:11:42.628Z,7.93
2023-03-04T21:14:17.481Z,6.78
2023-03-04T21:16:44.556Z,10.68
2023-03-04T21:19:27.893Z,7.35
2023-03-04T21:21:56.011Z,8.85
2023-03-04T21:24:25.668Z,11.13
2023-03-04T21:26:52.625Z,16.38
2023-03-04T21:29:22.220Z,14.70
2023-03-04T21:31:56.764Z,18.27
2023-03-04T21:34:37.581Z,14.98
2023-03-04T21:37:05.074Z,9.82
2023-03-04T21:39:32.913Z,12.57
2023-03-04T21:42:00.709Z,9.88
2023-03-04T21:44:48.609Z,12.52
2023-03-04T21:47:16.109Z,13.88
2023-03-04T21:49:48.707Z,15.50
2023-03-04T21:52:15.887Z,12.90
2023-03-04T21:54:42.810Z,14.57
2023-03-04T21:57:10.048Z,19.05
2023-03-04T21:59:38.502Z,14.25
2023-03-04T22:02:05.441Z,15.18
2023-03-04T22:04:32.577Z,12.57
2023-03-04T22:06:59.412Z,18.63
2023-03-04T22:09:26.150Z,21.17
2023-03-04T22:11:53.406Z,21.77
2023-03-04T22:14:20.293Z,20.98
2023-03-04T22:16:55.337Z,27.08
2023-03-04T22:19:24.942Z,24.20
2023-03-04T22:21:52.319Z,23.45
2023-03-04T22:24:19.796Z,23.63
2023-03-04T22:26:47.037Z,26.88
2023-03-04T22:29:13.771Z,26.00
2023-03-04T22:31:40.587Z,28.40
2023-03-04T22:34:11.770Z,26.88
2023-03-04T22:36:41.304Z,27.02
2023-03-04T22:39:10.787Z,28.13
2023-03-04T22:41:37.873Z,21.20
2023-03-04T22:44:06.388Z,27.50
2023-03-04T22:46:35.191Z,23.83
2023-03-04T22:49:09.685Z,26.02
2023-03-04T22:51:37.214Z,24.52
2023-03-04T22:54:04.216Z,22.25
2023-03-04T22:56:31.481Z,21.77
2023-03-04T22:58:58.503Z,22.45
2023-03-04T23:01:25.285Z,19.15
2023-03-04T23:03:52.604Z,25.15
2023-03-04T23:06:25.134Z,18.17
2023-03-04T23:08:52.987Z,18.25
2023-03-04T23:11:24.195Z,22.90
2023-03-04T23:13:51.358Z,23.25
2023-03-04T23:16:19.347Z,21.63
2023-03-04T23:18:47.841Z,20.98
2023-03-04T23:21:17.784Z,22.60
2023-03-04T23:23:45.099Z,25.08
2023-03-04T23:26:22.628Z,23.73
2023-03-04T23:28:50.116Z,24.02
2023-03-04T23:31:17.695Z,21.45
2023-03-04T23:33:45.537Z,21.42
2023-03-04T23:36:18.970Z,24.65
2023-03-04T23:38:48.158Z,23.73
2023-03-04T23:41:17.779Z,22.83
2023-03-04T23:43:44.815Z,27.75
2023-03-04T23:46:11.933Z,30.00
2023-03-04T23:48:39.365Z,28.65
2023-03-04T23:51:06.573Z,25.35
2023-03-04T23:53:34.596Z,27.40
2023-03-04T23:56:01.357Z,24.60
2023-03-04T23:58:28.022Z,23.13
